sensor_id;sensor_type;location;lat;lon;timestamp;P1;durP1;ratioP1;P2;durP2;ratioP2
2544;SDS011;36212;48.838;9.142;2024-02-23T00:02:24;1.80;;;1.70;;
2544;SDS011;36212;48.838;9.142;2024-02-23T00:04:57;2.00;;;1.90;;
2544;SDS011;36212;48.838;9.142;2024-02-23T00:07:29;1.70;;;1.60;;
2544;SDS011;36212;48.838;9.142;2024-02-23T00:10:01;1.90;;;1.80;;
2544;SDS011;36212;48.838;9.142;2024-02-23T00:12:35;1.77;;;1.67;;
2544;SDS011;36212;48.838;9.142;2024-02-23T00:15:07;1.98;;;1.70;;
2544;SDS011;36212;48.838;9.142;2024-02-23T00:17:40;1.95;;;1.85;;
2544;SDS011;36212;48.838;9.142;2024-02-23T00:20:12;1.90;;;1.80;;
2544;SDS011;36212;48.838;9.142;2024-02-23T00:22:47;2.38;;;2.03;;
2544;SDS011;36212;48.838;9.142;2024-02-23T00:25:19;2.00;;;1.90;;
2544;SDS011;36212;48.838;9.142;2024-02-23T00:27:53;6.45;;;2.00;;
2544;SDS011;36212;48.838;9.142;2024-02-23T00:30:25;2.90;;;2.22;;
2544;SDS011;36212;48.838;9.142;2024-02-23T00:32:59;2.25;;;2.00;;
2544;SDS011;36212;48.838;9.142;2024-02-23T00:35:31;1.90;;;1.80;;
2544;SDS011;36212;48.838;9.142;2024-02-23T00:38:04;1.90;;;1.80;;
2544;SDS011;36212;48.838;9.142;2024-02-23T00:40:37;2.40;;;1.90;;
2544;SDS011;36212;48.838;9.142;2024-02-23T00:43:10;2.25;;;2.10;;
2544;SDS011;36212;48.838;9.142;2024-02-23T00:45:42;1.90;;;1.80;;
2544;SDS011;36212;48.838;9.142;2024-02-23T00:48:14;2.10;;;2.00;;
2544;SDS011;36212;48.838;9.142;2024-02-23T00:50:46;3.28;;;2.10;;
2544;SDS011;36212;48.838;9.142;2024-02-23T00:53:19;2.30;;;2.20;;
2544;SDS011;36212;48.838;9.142;2024-02-23T00:55:52;2.20;;;2.00;;
2544;SDS011;36212;48.838;9.142;2024-02-23T00:58:24;2.83;;;2.40;;
2544;SDS011;36212;48.838;9.142;2024-02-23T01:00:56;2.67;;;2.47;;
2544;SDS011;36212;48.838;9.142;2024-02-23T01:03:29;2.53;;;2.38;;
2544;SDS011;36212;48.838;9.142;2024-02-23T01:06:02;2.40;;;2.20;;
2544;SDS011;36212;48.838;9.142;2024-02-23T01:08:34;3.05;;;2.55;;
2544;SDS011;36212;48.838;9.142;2024-02-23T01:11:07;2.22;;;2.03;;
2544;SDS011;36212;48.838;9.142;2024-02-23T01:13:39;4.15;;;2.55;;
2544;SDS011;36212;48.838;9.142;2024-02-23T01:16:11;2.53;;;2.30;;
2544;SDS011;36212;48.838;9.142;2024-02-23T01:18:44;4.00;;;2.38;;
2544;SDS011;36212;48.838;9.142;2024-02-23T01:21:16;2.40;;;2.20;;
2544;SDS011;36212;48.838;9.142;2024-02-23T01:23:48;3.72;;;2.38;;
2544;SDS011;36212;48.838;9.142;2024-02-23T01:26:20;2.60;;;2.20;;
2544;SDS011;36212;48.838;9.142;2024-02-23T01:28:54;2.50;;;2.30;;
2544;SDS011;36212;48.838;9.142;2024-02-23T01:31:26;2.70;;;2.50;;
2544;SDS011;36212;48.838;9.142;2024-02-23T01:33:59;2.70;;;2.60;;
2544;SDS011;36212;48.838;9.142;2024-02-23T01:36:31;4.20;;;2.35;;
2544;SDS011;36212;48.838;9.142;2024-02-23T01:39:03;2.78;;;2.60;;
2544;SDS011;36212;48.838;9.142;2024-02-23T01:41:36;4.53;;;2.50;;
2544;SDS011;36212;48.838;9.142;2024-02-23T01:44:08;2.20;;;2.10;;
2544;SDS011;36212;48.838;9.142;2024-02-23T01:46:42;3.58;;;2.00;;
2544;SDS011;36212;48.838;9.142;2024-02-23T01:49:15;2.40;;;2.20;;
2544;SDS011;36212;48.838;9.142;2024-02-23T01:51:50;2.50;;;2.30;;
2544;SDS011;36212;48.838;9.142;2024-02-23T01:54:23;2.28;;;2.17;;
2544;SDS011;36212;48.838;9.142;2024-02-23T01:56:57;2.60;;;2.50;;
2544;SDS011;36212;48.838;9.142;2024-02-23T01:59:50;3.85;;;2.40;;
2544;SDS011;36212;48.838;9.142;2024-02-23T02:02:23;3.63;;;2.30;;
2544;SDS011;36212;48.838;9.142;2024-02-23T02:04:56;2.63;;;2.33;;
2544;SDS011;36212;48.838;9.142;2024-02-23T02:07:29;2.42;;;2.20;;
2544;SDS011;36212;48.838;9.142;2024-02-23T02:10:01;1.95;;;1.85;;
2544;SDS011;36212;48.838;9.142;2024-02-23T02:12:38;2.97;;;2.50;;
2544;SDS011;36212;48.838;9.142;2024-02-23T02:15:10;3.22;;;2.90;;
2544;SDS011;36212;48.838;9.142;2024-02-23T02:17:42;2.28;;;2.08;;
2544;SDS011;36212;48.838;9.142;2024-02-23T02:20:15;2.75;;;2.30;;
2544;SDS011;36212;48.838;9.142;2024-02-23T02:22:54;2.70;;;2.45;;
2544;SDS011;36212;48.838;9.142;2024-02-23T02:25:26;2.20;;;2.00;;
2544;SDS011;36212;48.838;9.142;2024-02-23T02:27:58;10.18;;;2.92;;
2544;SDS011;36212;48.838;9.142;2024-02-23T02:30:30;2.35;;;2.25;;
2544;SDS011;36212;48.838;9.142;2024-02-23T02:33:03;2.53;;;2.33;;
2544;SDS011;36212;48.838;9.142;2024-02-23T02:35:35;3.10;;;1.85;;
2544;SDS011;36212;48.838;9.142;2024-02-23T02:38:07;2.58;;;1.95;;
2544;SDS011;36212;48.838;9.142;2024-02-23T02:40:41;2.20;;;2.10;;
2544;SDS011;36212;48.838;9.142;2024-02-23T02:43:13;4.60;;;2.50;;
2544;SDS011;36212;48.838;9.142;2024-02-23T02:45:45;2.95;;;2.75;;
2544;SDS011;36212;48.838;9.142;2024-02-23T02:48:17;2.70;;;1.98;;
2544;SDS011;36212;48.838;9.142;2024-02-23T02:50:50;2.05;;;1.95;;
2544;SDS011;36212;48.838;9.142;2024-02-23T02:53:25;2.03;;;1.92;;
2544;SDS011;36212;48.838;9.142;2024-02-23T02:55:57;3.15;;;2.10;;
2544;SDS011;36212;48.838;9.142;2024-02-23T02:58:29;4.65;;;2.15;;
2544;SDS011;36212;48.838;9.142;2024-02-23T03:01:02;2.92;;;2.25;;
2544;SDS011;36212;48.838;9.142;2024-02-23T03:03:34;2.40;;;2.20;;
2544;SDS011;36212;48.838;9.142;2024-02-23T03:06:06;2.17;;;2.08;;
2544;SDS011;36212;48.838;9.142;2024-02-23T03:08:41;4.57;;;2.17;;
2544;SDS011;36212;48.838;9.142;2024-02-23T03:11:14;2.10;;;2.00;;
2544;SDS011;36212;48.838;9.142;2024-02-23T03:13:46;2.90;;;2.20;;
2544;SDS011;36212;48.838;9.142;2024-02-23T03:16:20;2.47;;;2.20;;
2544;SDS011;36212;48.838;9.142;2024-02-23T03:18:56;2.10;;;1.90;;
2544;SDS011;36212;48.838;9.142;2024-02-23T03:21:28;2.15;;;2.05;;
2544;SDS011;36212;48.838;9.142;2024-02-23T03:24:01;5.45;;;2.47;;
2544;SDS011;36212;48.838;9.142;2024-02-23T03:26:34;2.20;;;2.10;;
2544;SDS011;36212;48.838;9.142;2024-02-23T03:29:07;2.38;;;2.28;;
2544;SDS011;36212;48.838;9.142;2024-02-23T03:31:40;2.10;;;1.90;;
2544;SDS011;36212;48.838;9.142;2024-02-23T03:34:12;5.05;;;2.38;;
2544;SDS011;36212;48.838;9.142;2024-02-23T03:36:45;2.58;;;2.20;;
2544;SDS011;36212;48.838;9.142;2024-02-23T03:39:17;2.80;;;2.60;;
2544;SDS011;36212;48.838;9.142;2024-02-23T03:41:50;3.15;;;2.25;;
2544;SDS011;36212;48.838;9.142;2024-02-23T03:44:22;2.33;;;2.20;;
2544;SDS011;36212;48.838;9.142;2024-02-23T03:46:55;2.10;;;2.00;;
2544;SDS011;36212;48.838;9.142;2024-02-23T03:49:27;2.25;;;2.10;;
2544;SDS011;36212;48.838;9.142;2024-02-23T03:51:59;2.30;;;2.20;;
2544;SDS011;36212;48.838;9.142;2024-02-23T03:54:32;2.00;;;1.90;;
2544;SDS011;36212;48.838;9.142;2024-02-23T03:57:04;2.08;;;1.98;;
2544;SDS011;36212;48.838;9.142;2024-02-23T03:59:36;2.95;;;2.50;;
2544;SDS011;36212;48.838;9.142;2024-02-23T04:02:21;2.20;;;2.10;;
2544;SDS011;36212;48.838;9.142;2024-02-23T04:04:54;2.30;;;2.10;;
2544;SDS011;36212;48.838;9.142;2024-02-23T04:07:27;2.05;;;1.95;;
2544;SDS011;36212;48.838;9.142;2024-02-23T04:09:59;3.92;;;3.63;;
2544;SDS011;36212;48.838;9.142;2024-02-23T04:12:31;2.63;;;2.10;;
2544;SDS011;36212;48.838;9.142;2024-02-23T04:15:04;2.20;;;2.10;;
2544;SDS011;36212;48.838;9.142;2024-02-23T04:17:37;2.17;;;2.08;;
2544;SDS011;36212;48.838;9.142;2024-02-23T04:20:10;2.63;;;2.42;;
2544;SDS011;36212;48.838;9.142;2024-02-23T04:22:43;2.45;;;2.25;;
2544;SDS011;36212;48.838;9.142;2024-02-23T04:25:16;2.58;;;2.40;;
2544;SDS011;36212;48.838;9.142;2024-02-23T04:27:48;2.20;;;2.10;;
2544;SDS011;36212;48.838;9.142;2024-02-23T04:30:20;2.20;;;2.10;;
2544;SDS011;36212;48.838;9.142;2024-02-23T04:32:53;2.47;;;2.20;;
2544;SDS011;36212;48.838;9.142;2024-02-23T04:35:25;2.42;;;2.22;;
2544;SDS011;36212;48.838;9.142;2024-02-23T04:37:57;2.30;;;2.20;;
2544;SDS011;36212;48.838;9.142;2024-02-23T04:40:30;2.67;;;2.45;;
2544;SDS011;36212;48.838;9.142;2024-02-23T04:43:02;2.35;;;2.25;;
2544;SDS011;36212;48.838;9.142;2024-02-23T04:45:35;3.05;;;2.40;;
2544;SDS011;36212;48.838;9.142;2024-02-23T04:48:07;3.22;;;3.03;;
2544;SDS011;36212;48.838;9.142;2024-02-23T04:50:39;2.50;;;2.40;;
2544;SDS011;36212;48.838;9.142;2024-02-23T04:53:12;3.65;;;2.33;;
2544;SDS011;36212;48.838;9.142;2024-02-23T04:55:44;2.58;;;2.38;;
2544;SDS011;36212;48.838;9.142;2024-02-23T04:58:16;3.00;;;2.80;;
2544;SDS011;36212;48.838;9.142;2024-02-23T05:00:50;6.65;;;2.90;;
2544;SDS011;36212;48.838;9.142;2024-02-23T05:03:23;3.40;;;3.20;;
2544;SDS011;36212;48.838;9.142;2024-02-23T05:05:55;3.40;;;3.15;;
2544;SDS011;36212;48.838;9.142;2024-02-23T05:08:28;4.25;;;3.22;;
2544;SDS011;36212;48.838;9.142;2024-02-23T05:11:02;4.80;;;4.50;;
2544;SDS011;36212;48.838;9.142;2024-02-23T05:13:35;4.70;;;4.30;;
2544;SDS011;36212;48.838;9.142;2024-02-23T05:16:09;2.80;;;2.60;;
2544;SDS011;36212;48.838;9.142;2024-02-23T05:18:44;2.42;;;2.33;;
2544;SDS011;36212;48.838;9.142;2024-02-23T05:21:18;2.67;;;2.47;;
2544;SDS011;36212;48.838;9.142;2024-02-23T05:23:50;3.97;;;2.45;;
2544;SDS011;36212;48.838;9.142;2024-02-23T05:26:22;2.70;;;2.50;;
2544;SDS011;36212;48.838;9.142;2024-02-23T05:28:55;2.28;;;2.17;;
2544;SDS011;36212;48.838;9.142;2024-02-23T05:31:43;2.92;;;2.50;;
2544;SDS011;36212;48.838;9.142;2024-02-23T05:34:21;3.00;;;2.80;;
2544;SDS011;36212;48.838;9.142;2024-02-23T05:36:54;4.95;;;2.75;;
2544;SDS011;36212;48.838;9.142;2024-02-23T05:39:26;4.07;;;2.60;;
2544;SDS011;36212;48.838;9.142;2024-02-23T05:41:59;5.07;;;2.60;;
2544;SDS011;36212;48.838;9.142;2024-02-23T05:44:31;2.75;;;2.50;;
2544;SDS011;36212;48.838;9.142;2024-02-23T05:47:04;2.58;;;2.40;;
2544;SDS011;36212;48.838;9.142;2024-02-23T05:49:36;2.35;;;2.25;;
2544;SDS011;36212;48.838;9.142;2024-02-23T05:52:09;2.50;;;2.40;;
2544;SDS011;36212;48.838;9.142;2024-02-23T05:54:41;2.67;;;2.40;;
2544;SDS011;36212;48.838;9.142;2024-02-23T05:57:14;2.80;;;2.60;;
2544;SDS011;36212;48.838;9.142;2024-02-23T05:59:46;2.65;;;2.55;;
2544;SDS011;36212;48.838;9.142;2024-02-23T06:02:19;3.92;;;2.25;;
2544;SDS011;36212;48.838;9.142;2024-02-23T06:04:52;2.63;;;2.40;;
2544;SDS011;36212;48.838;9.142;2024-02-23T06:07:24;2.60;;;2.40;;
2544;SDS011;36212;48.838;9.142;2024-02-23T06:10:01;2.13;;;2.03;;
2544;SDS011;36212;48.838;9.142;2024-02-23T06:12:34;2.10;;;2.00;;
2544;SDS011;36212;48.838;9.142;2024-02-23T06:15:06;2.60;;;2.40;;
2544;SDS011;36212;48.838;9.142;2024-02-23T06:17:39;2.30;;;2.20;;
2544;SDS011;36212;48.838;9.142;2024-02-23T06:20:12;2.83;;;2.67;;
2544;SDS011;36212;48.838;9.142;2024-02-23T06:22:45;3.15;;;2.85;;
2544;SDS011;36212;48.838;9.142;2024-02-23T06:25:17;2.40;;;2.30;;
2544;SDS011;36212;48.838;9.142;2024-02-23T06:27:50;3.35;;;2.50;;
2544;SDS011;36212;48.838;9.142;2024-02-23T06:30:22;2.40;;;2.30;;
2544;SDS011;36212;48.838;9.142;2024-02-23T06:32:54;2.20;;;2.10;;
2544;SDS011;36212;48.838;9.142;2024-02-23T06:35:27;2.65;;;2.45;;
2544;SDS011;36212;48.838;9.142;2024-02-23T06:37:59;2.60;;;2.50;;
2544;SDS011;36212;48.838;9.142;2024-02-23T06:40:31;2.80;;;2.60;;
2544;SDS011;36212;48.838;9.142;2024-02-23T06:43:19;3.53;;;2.50;;
2544;SDS011;36212;48.838;9.142;2024-02-23T06:45:54;2.63;;;2.13;;
2544;SDS011;36212;48.838;9.142;2024-02-23T06:48:26;2.25;;;2.15;;
2544;SDS011;36212;48.838;9.142;2024-02-23T06:51:03;5.93;;;2.00;;
2544;SDS011;36212;48.838;9.142;2024-02-23T06:53:41;2.45;;;1.88;;
2544;SDS011;36212;48.838;9.142;2024-02-23T06:56:14;3.30;;;2.00;;
2544;SDS011;36212;48.838;9.142;2024-02-23T06:58:46;2.85;;;2.75;;
2544;SDS011;36212;48.838;9.142;2024-02-23T07:01:20;3.25;;;2.17;;
2544;SDS011;36212;48.838;9.142;2024-02-23T07:03:52;2.17;;;1.90;;
2544;SDS011;36212;48.838;9.142;2024-02-23T07:06:24;2.50;;;2.30;;
2544;SDS011;36212;48.838;9.142;2024-02-23T07:08:58;2.58;;;2.20;;
2544;SDS011;36212;48.838;9.142;2024-02-23T07:11:31;2.70;;;2.50;;
2544;SDS011;36212;48.838;9.142;2024-02-23T07:14:04;2.50;;;2.30;;
2544;SDS011;36212;48.838;9.142;2024-02-23T07:16:40;2.33;;;2.22;;
2544;SDS011;36212;48.838;9.142;2024-02-23T07:19:12;3.50;;;2.45;;
2544;SDS011;36212;48.838;9.142;2024-02-23T07:21:45;2.30;;;2.10;;
2544;SDS011;36212;48.838;9.142;2024-02-23T07:24:17;4.25;;;4.05;;
2544;SDS011;36212;48.838;9.142;2024-02-23T07:26:50;2.10;;;2.00;;
2544;SDS011;36212;48.838;9.142;2024-02-23T07:29:23;2.30;;;2.08;;
2544;SDS011;36212;48.838;9.142;2024-02-23T07:31:56;2.25;;;2.05;;
2544;SDS011;36212;48.838;9.142;2024-02-23T07:34:29;2.30;;;2.10;;
2544;SDS011;36212;48.838;9.142;2024-02-23T07:37:02;3.05;;;2.00;;
2544;SDS011;36212;48.838;9.142;2024-02-23T07:39:35;2.45;;;2.25;;
2544;SDS011;36212;48.838;9.142;2024-02-23T07:42:08;2.33;;;2.13;;
2544;SDS011;36212;48.838;9.142;2024-02-23T07:44:44;2.40;;;2.22;;
2544;SDS011;36212;48.838;9.142;2024-02-23T07:47:17;2.40;;;2.00;;
2544;SDS011;36212;48.838;9.142;2024-02-23T07:49:49;4.35;;;1.83;;
2544;SDS011;36212;48.838;9.142;2024-02-23T07:52:23;2.78;;;2.00;;
2544;SDS011;36212;48.838;9.142;2024-02-23T07:54:56;2.15;;;2.05;;
2544;SDS011;36212;48.838;9.142;2024-02-23T07:57:30;1.90;;;1.80;;
2544;SDS011;36212;48.838;9.142;2024-02-23T08:00:05;2.95;;;2.42;;
2544;SDS011;36212;48.838;9.142;2024-02-23T08:02:44;2.30;;;2.20;;
2544;SDS011;36212;48.838;9.142;2024-02-23T08:05:17;2.10;;;2.00;;
2544;SDS011;36212;48.838;9.142;2024-02-23T08:07:51;2.92;;;2.22;;
2544;SDS011;36212;48.838;9.142;2024-02-23T08:10:24;4.53;;;1.90;;
2544;SDS011;36212;48.838;9.142;2024-02-23T08:12:58;2.88;;;2.67;;
2544;SDS011;36212;48.838;9.142;2024-02-23T08:15:32;2.40;;;2.30;;
2544;SDS011;36212;48.838;9.142;2024-02-23T08:18:06;2.42;;;2.22;;
2544;SDS011;36212;48.838;9.142;2024-02-23T08:20:39;2.15;;;2.05;;
2544;SDS011;36212;48.838;9.142;2024-02-23T08:23:12;3.25;;;2.10;;
2544;SDS011;36212;48.838;9.142;2024-02-23T08:25:45;2.00;;;1.90;;
2544;SDS011;36212;48.838;9.142;2024-02-23T08:28:19;1.95;;;1.85;;
2544;SDS011;36212;48.838;9.142;2024-02-23T08:30:53;1.92;;;1.83;;
2544;SDS011;36212;48.838;9.142;2024-02-23T08:33:26;2.05;;;1.95;;
2544;SDS011;36212;48.838;9.142;2024-02-23T08:35:58;2.08;;;1.83;;
2544;SDS011;36212;48.838;9.142;2024-02-23T08:38:36;3.28;;;2.47;;
2544;SDS011;36212;48.838;9.142;2024-02-23T08:41:09;2.25;;;2.15;;
2544;SDS011;36212;48.838;9.142;2024-02-23T08:43:41;4.22;;;2.28;;
2544;SDS011;36212;48.838;9.142;2024-02-23T08:46:15;4.32;;;2.38;;
2544;SDS011;36212;48.838;9.142;2024-02-23T08:48:48;2.47;;;2.30;;
2544;SDS011;36212;48.838;9.142;2024-02-23T08:51:21;2.60;;;2.40;;
2544;SDS011;36212;48.838;9.142;2024-02-23T08:53:53;2.80;;;2.60;;
2544;SDS011;36212;48.838;9.142;2024-02-23T08:56:38;2.35;;;2.25;;
2544;SDS011;36212;48.838;9.142;2024-02-23T08:59:14;2.67;;;2.38;;
2544;SDS011;36212;48.838;9.142;2024-02-23T09:01:47;3.35;;;2.60;;
2544;SDS011;36212;48.838;9.142;2024-02-23T09:04:20;2.50;;;2.40;;
2544;SDS011;36212;48.838;9.142;2024-02-23T09:06:53;3.28;;;2.83;;
2544;SDS011;36212;48.838;9.142;2024-02-23T09:09:26;2.50;;;2.40;;
2544;SDS011;36212;48.838;9.142;2024-02-23T09:11:59;6.22;;;3.83;;
2544;SDS011;36212;48.838;9.142;2024-02-23T09:14:32;4.10;;;3.05;;
2544;SDS011;36212;48.838;9.142;2024-02-23T09:17:09;3.95;;;3.65;;
2544;SDS011;36212;48.838;9.142;2024-02-23T09:19:43;4.55;;;3.05;;
2544;SDS011;36212;48.838;9.142;2024-02-23T09:22:17;2.60;;;2.47;;
2544;SDS011;36212;48.838;9.142;2024-02-23T09:24:49;2.90;;;2.65;;
2544;SDS011;36212;48.838;9.142;2024-02-23T09:27:22;3.17;;;2.88;;
2544;SDS011;36212;48.838;9.142;2024-02-23T09:29:54;3.72;;;2.63;;
2544;SDS011;36212;48.838;9.142;2024-02-23T09:32:28;2.75;;;2.53;;
2544;SDS011;36212;48.838;9.142;2024-02-23T09:35:00;3.63;;;3.33;;
2544;SDS011;36212;48.838;9.142;2024-02-23T09:37:34;2.88;;;2.45;;
2544;SDS011;36212;48.838;9.142;2024-02-23T09:40:06;2.80;;;2.60;;
2544;SDS011;36212;48.838;9.142;2024-02-23T09:42:40;3.42;;;2.60;;
2544;SDS011;36212;48.838;9.142;2024-02-23T09:45:20;5.43;;;2.50;;
2544;SDS011;36212;48.838;9.142;2024-02-23T09:47:56;2.45;;;2.22;;
2544;SDS011;36212;48.838;9.142;2024-02-23T09:50:30;2.65;;;2.05;;
2544;SDS011;36212;48.838;9.142;2024-02-23T09:53:05;4.28;;;3.08;;
2544;SDS011;36212;48.838;9.142;2024-02-23T09:55:43;2.65;;;2.45;;
2544;SDS011;36212;48.838;9.142;2024-02-23T09:58:20;5.10;;;2.88;;
2544;SDS011;36212;48.838;9.142;2024-02-23T10:00:55;3.97;;;3.08;;
2544;SDS011;36212;48.838;9.142;2024-02-23T10:03:32;3.90;;;2.47;;
2544;SDS011;36212;48.838;9.142;2024-02-23T10:06:06;4.90;;;3.05;;
2544;SDS011;36212;48.838;9.142;2024-02-23T10:08:39;6.15;;;2.35;;
2544;SDS011;36212;48.838;9.142;2024-02-23T10:11:12;5.03;;;2.50;;
2544;SDS011;36212;48.838;9.142;2024-02-23T10:13:48;2.70;;;2.50;;
2544;SDS011;36212;48.838;9.142;2024-02-23T10:16:22;2.85;;;2.50;;
2544;SDS011;36212;48.838;9.142;2024-02-23T10:18:57;4.68;;;2.75;;
2544;SDS011;36212;48.838;9.142;2024-02-23T10:21:29;3.75;;;3.30;;
2544;SDS011;36212;48.838;9.142;2024-02-23T10:24:05;4.63;;;2.88;;
2544;SDS011;36212;48.838;9.142;2024-02-23T10:26:39;5.85;;;3.75;;
2544;SDS011;36212;48.838;9.142;2024-02-23T10:29:12;3.17;;;2.70;;
2544;SDS011;36212;48.838;9.142;2024-02-23T10:31:49;3.30;;;3.00;;
2544;SDS011;36212;48.838;9.142;2024-02-23T10:34:27;4.20;;;3.72;;
2544;SDS011;36212;48.838;9.142;2024-02-23T10:37:04;7.18;;;2.70;;
2544;SDS011;36212;48.838;9.142;2024-02-23T10:39:38;4.00;;;2.40;;
2544;SDS011;36212;48.838;9.142;2024-02-23T10:42:13;2.70;;;2.50;;
2544;SDS011;36212;48.838;9.142;2024-02-23T10:44:53;2.70;;;2.50;;
2544;SDS011;36212;48.838;9.142;2024-02-23T10:47:32;3.72;;;2.40;;
2544;SDS011;36212;48.838;9.142;2024-02-23T10:50:06;6.13;;;2.40;;
2544;SDS011;36212;48.838;9.142;2024-02-23T10:52:40;3.40;;;2.53;;
2544;SDS011;36212;48.838;9.142;2024-02-23T10:55:14;4.00;;;2.67;;
2544;SDS011;36212;48.838;9.142;2024-02-23T10:57:48;2.10;;;2.00;;
2544;SDS011;36212;48.838;9.142;2024-02-23T11:00:25;3.80;;;2.28;;
2544;SDS011;36212;48.838;9.142;2024-02-23T11:02:58;3.10;;;2.30;;
2544;SDS011;36212;48.838;9.142;2024-02-23T11:05:31;3.30;;;2.53;;
2544;SDS011;36212;48.838;9.142;2024-02-23T11:08:05;2.72;;;2.53;;
2544;SDS011;36212;48.838;9.142;2024-02-23T11:10:43;3.88;;;3.10;;
2544;SDS011;36212;48.838;9.142;2024-02-23T11:13:34;3.53;;;2.92;;
2544;SDS011;36212;48.838;9.142;2024-02-23T11:16:08;2.88;;;2.63;;
2544;SDS011;36212;48.838;9.142;2024-02-23T11:19:01;4.10;;;3.60;;
2544;SDS011;36212;48.838;9.142;2024-02-23T11:21:39;2.80;;;2.60;;
2544;SDS011;36212;48.838;9.142;2024-02-23T11:24:15;2.80;;;2.60;;
2544;SDS011;36212;48.838;9.142;2024-02-23T11:26:48;2.88;;;2.47;;
2544;SDS011;36212;48.838;9.142;2024-02-23T11:29:27;4.35;;;2.90;;
2544;SDS011;36212;48.838;9.142;2024-02-23T11:32:02;2.80;;;2.60;;
2544;SDS011;36212;48.838;9.142;2024-02-23T11:34:56;3.05;;;2.75;;
2544;SDS011;36212;48.838;9.142;2024-02-23T11:37:32;3.13;;;2.45;;
2544;SDS011;36212;48.838;9.142;2024-02-23T11:40:26;3.42;;;2.65;;
2544;SDS011;36212;48.838;9.142;2024-02-23T11:43:00;2.92;;;2.72;;
2544;SDS011;36212;48.838;9.142;2024-02-23T11:45:34;3.03;;;2.38;;
2544;SDS011;36212;48.838;9.142;2024-02-23T11:48:07;2.97;;;2.70;;
2544;SDS011;36212;48.838;9.142;2024-02-23T11:50:41;6.85;;;4.05;;
2544;SDS011;36212;48.838;9.142;2024-02-23T11:53:15;3.10;;;2.80;;
2544;SDS011;36212;48.838;9.142;2024-02-23T11:55:52;3.05;;;2.80;;
2544;SDS011;36212;48.838;9.142;2024-02-23T11:58:26;2.83;;;2.45;;
2544;SDS011;36212;48.838;9.142;2024-02-23T12:01:03;3.00;;;2.80;;
2544;SDS011;36212;48.838;9.142;2024-02-23T12:03:37;5.45;;;3.20;;
2544;SDS011;36212;48.838;9.142;2024-02-23T12:06:12;2.65;;;2.55;;
2544;SDS011;36212;48.838;9.142;2024-02-23T12:08:50;3.20;;;2.90;;
2544;SDS011;36212;48.838;9.142;2024-02-23T12:11:22;5.85;;;2.60;;
2544;SDS011;36212;48.838;9.142;2024-02-23T12:13:56;3.45;;;2.60;;
2544;SDS011;36212;48.838;9.142;2024-02-23T12:16:42;3.13;;;3.03;;
2544;SDS011;36212;48.838;9.142;2024-02-23T12:19:32;4.22;;;3.20;;
2544;SDS011;36212;48.838;9.142;2024-02-23T12:22:12;4.80;;;3.30;;
2544;SDS011;36212;48.838;9.142;2024-02-23T12:24:45;4.32;;;2.75;;
2544;SDS011;36212;48.838;9.142;2024-02-23T12:27:29;3.40;;;3.20;;
2544;SDS011;36212;48.838;9.142;2024-02-23T12:30:14;6.35;;;3.25;;
2544;SDS011;36212;48.838;9.142;2024-02-23T12:32:48;5.72;;;3.28;;
2544;SDS011;36212;48.838;9.142;2024-02-23T12:35:21;3.35;;;3.05;;
2544;SDS011;36212;48.838;9.142;2024-02-23T12:37:53;2.92;;;2.60;;
2544;SDS011;36212;48.838;9.142;2024-02-23T12:40:26;3.67;;;2.72;;
2544;SDS011;36212;48.838;9.142;2024-02-23T12:42:59;3.15;;;2.50;;
2544;SDS011;36212;48.838;9.142;2024-02-23T12:45:31;5.00;;;2.67;;
2544;SDS011;36212;48.838;9.142;2024-02-23T12:48:04;3.58;;;3.28;;
2544;SDS011;36212;48.838;9.142;2024-02-23T12:50:37;2.40;;;2.30;;
2544;SDS011;36212;48.838;9.142;2024-02-23T12:53:10;3.13;;;2.92;;
2544;SDS011;36212;48.838;9.142;2024-02-23T12:56:07;5.22;;;3.78;;
2544;SDS011;36212;48.838;9.142;2024-02-23T12:58:43;3.95;;;3.15;;
2544;SDS011;36212;48.838;9.142;2024-02-23T13:01:16;3.70;;;3.40;;
2544;SDS011;36212;48.838;9.142;2024-02-23T13:03:49;3.25;;;3.05;;
2544;SDS011;36212;48.838;9.142;2024-02-23T13:06:22;4.85;;;2.90;;
2544;SDS011;36212;48.838;9.142;2024-02-23T13:08:55;4.10;;;3.35;;
2544;SDS011;36212;48.838;9.142;2024-02-23T13:11:28;9.13;;;2.95;;
2544;SDS011;36212;48.838;9.142;2024-02-23T13:14:01;3.58;;;2.95;;
2544;SDS011;36212;48.838;9.142;2024-02-23T13:16:33;4.53;;;3.05;;
2544;SDS011;36212;48.838;9.142;2024-02-23T13:19:06;3.50;;;2.90;;
2544;SDS011;36212;48.838;9.142;2024-02-23T13:21:39;2.63;;;2.42;;
2544;SDS011;36212;48.838;9.142;2024-02-23T13:24:11;3.08;;;2.65;;
2544;SDS011;36212;48.838;9.142;2024-02-23T13:26:45;4.00;;;2.95;;
2544;SDS011;36212;48.838;9.142;2024-02-23T13:29:18;2.83;;;2.65;;
2544;SDS011;36212;48.838;9.142;2024-02-23T13:31:51;3.17;;;2.97;;
2544;SDS011;36212;48.838;9.142;2024-02-23T13:34:23;3.75;;;2.88;;
2544;SDS011;36212;48.838;9.142;2024-02-23T13:36:56;5.45;;;3.40;;
2544;SDS011;36212;48.838;9.142;2024-02-23T13:39:29;2.92;;;2.72;;
2544;SDS011;36212;48.838;9.142;2024-02-23T13:42:03;2.75;;;2.60;;
2544;SDS011;36212;48.838;9.142;2024-02-23T13:44:44;2.90;;;2.70;;
2544;SDS011;36212;48.838;9.142;2024-02-23T13:47:18;3.15;;;2.92;;
2544;SDS011;36212;48.838;9.142;2024-02-23T13:49:55;9.30;;;3.03;;
2544;SDS011;36212;48.838;9.142;2024-02-23T13:52:28;3.10;;;2.80;;
2544;SDS011;36212;48.838;9.142;2024-02-23T13:55:01;3.13;;;2.75;;
2544;SDS011;36212;48.838;9.142;2024-02-23T13:57:34;3.25;;;2.95;;
2544;SDS011;36212;48.838;9.142;2024-02-23T14:00:07;4.43;;;4.00;;
2544;SDS011;36212;48.838;9.142;2024-02-23T14:02:46;3.33;;;3.00;;
2544;SDS011;36212;48.838;9.142;2024-02-23T14:05:20;4.07;;;3.30;;
2544;SDS011;36212;48.838;9.142;2024-02-23T14:07:55;3.45;;;3.00;;
2544;SDS011;36212;48.838;9.142;2024-02-23T14:10:29;5.68;;;3.38;;
2544;SDS011;36212;48.838;9.142;2024-02-23T14:13:01;3.75;;;3.45;;
2544;SDS011;36212;48.838;9.142;2024-02-23T14:15:35;3.05;;;2.60;;
2544;SDS011;36212;48.838;9.142;2024-02-23T14:18:08;2.92;;;2.70;;
2544;SDS011;36212;48.838;9.142;2024-02-23T14:20:40;4.03;;;3.20;;
2544;SDS011;36212;48.838;9.142;2024-02-23T14:23:13;3.22;;;2.95;;
2544;SDS011;36212;48.838;9.142;2024-02-23T14:25:46;3.53;;;3.22;;
2544;SDS011;36212;48.838;9.142;2024-02-23T14:28:19;3.20;;;3.00;;
2544;SDS011;36212;48.838;9.142;2024-02-23T14:30:52;6.72;;;3.10;;
2544;SDS011;36212;48.838;9.142;2024-02-23T14:33:26;4.13;;;3.55;;
2544;SDS011;36212;48.838;9.142;2024-02-23T14:35:59;5.13;;;3.67;;
2544;SDS011;36212;48.838;9.142;2024-02-23T14:38:32;4.80;;;3.22;;
2544;SDS011;36212;48.838;9.142;2024-02-23T14:41:05;6.28;;;3.33;;
2544;SDS011;36212;48.838;9.142;2024-02-23T14:43:41;5.53;;;3.33;;
2544;SDS011;36212;48.838;9.142;2024-02-23T14:46:14;4.93;;;2.95;;
2544;SDS011;36212;48.838;9.142;2024-02-23T14:48:46;3.00;;;2.80;;
2544;SDS011;36212;48.838;9.142;2024-02-23T14:51:20;4.35;;;3.45;;
2544;SDS011;36212;48.838;9.142;2024-02-23T14:53:53;6.72;;;3.35;;
2544;SDS011;36212;48.838;9.142;2024-02-23T14:56:27;5.35;;;3.60;;
2544;SDS011;36212;48.838;9.142;2024-02-23T14:59:00;3.85;;;3.55;;
2544;SDS011;36212;48.838;9.142;2024-02-23T15:01:39;3.35;;;2.90;;
2544;SDS011;36212;48.838;9.142;2024-02-23T15:04:15;3.25;;;2.92;;
2544;SDS011;36212;48.838;9.142;2024-02-23T15:06:50;5.28;;;4.05;;
2544;SDS011;36212;48.838;9.142;2024-02-23T15:09:23;7.88;;;7.13;;
2544;SDS011;36212;48.838;9.142;2024-02-23T15:11:55;5.10;;;3.78;;
2544;SDS011;36212;48.838;9.142;2024-02-23T15:14:28;8.30;;;4.85;;
2544;SDS011;36212;48.838;9.142;2024-02-23T15:17:01;6.95;;;3.63;;
2544;SDS011;36212;48.838;9.142;2024-02-23T15:19:34;4.00;;;3.33;;
2544;SDS011;36212;48.838;9.142;2024-02-23T15:22:07;6.82;;;3.25;;
2544;SDS011;36212;48.838;9.142;2024-02-23T15:24:47;7.43;;;4.03;;
2544;SDS011;36212;48.838;9.142;2024-02-23T15:27:22;7.68;;;3.85;;
2544;SDS011;36212;48.838;9.142;2024-02-23T15:29:54;4.35;;;4.05;;
2544;SDS011;36212;48.838;9.142;2024-02-23T15:32:27;3.45;;;3.15;;
2544;SDS011;36212;48.838;9.142;2024-02-23T15:35:01;3.55;;;2.90;;
2544;SDS011;36212;48.838;9.142;2024-02-23T15:37:35;4.00;;;3.67;;
2544;SDS011;36212;48.838;9.142;2024-02-23T15:40:08;2.92;;;2.83;;
2544;SDS011;36212;48.838;9.142;2024-02-23T15:42:42;4.38;;;3.30;;